Time;durP1;ratioP1;P1;durP2;ratioP2;P2;SDS_P1;SDS_P2;PMS_P1;PMS_P2;Temp;Humidity;BMP_temperature;BMP_pressure;BME280_temperature;BME280_humidity;BME280_pressure;Samples;Min_cycle;Max_cycle;Signal;HPM_P1;HPM_P2
2023/07/11 00:00:03;;;;;;;3.45;1.88;;;;;;;;;;5054455;28;20462;-76
2023/07/11 00:02:29;;;;;;;2.78;1.98;;;;;;;;;;5054716;28;20041;-75
2023/07/11 00:04:55;;;;;;;2.20;1.80;;;;;;;;;;5056141;28;20361;-75
2023/07/11 00:07:20;;;;;;;3.58;1.67;;;;;;;;;;5054081;28;20388;-75
2023/07/11 00:09:48;;;;;;;3.65;2.40;;;;;;;;;;5054619;28;20017;-75
2023/07/11 00:12:14;;;;;;;4.07;2.03;;;;;;;;;;5054788;28;20087;-75
2023/07/11 00:14:40;;;;;;;3.00;1.80;;;;;;;;;;5053182;28;20032;-75
2023/07/11 00:17:06;;;;;;;2.53;2.00;;;;;;;;;;5055307;28;20041;-75
2023/07/11 00:19:47;;;;;;;1.65;1.40;;;;;;;;;;5058839;28;20127;-75
2023/07/11 00:22:13;;;;;;;2.08;1.80;;;;;;;;;;5055472;28;20124;-75
2023/07/11 00:24:39;;;;;;;2.38;1.88;;;;;;;;;;5054855;28;20048;-75
2023/07/11 00:27:05;;;;;;;2.45;1.77;;;;;;;;;;5053137;28;20041;-76
2023/07/11 00:29:33;;;;;;;2.80;1.92;;;;;;;;;;5048148;28;20020;-75
2023/07/11 00:31:59;;;;;;;6.25;1.95;;;;;;;;;;5053201;28;20032;-75
2023/07/11 00:34:25;;;;;;;3.03;2.10;;;;;;;;;;5057688;28;20494;-75
2023/07/11 00:36:51;;;;;;;1.52;1.42;;;;;;;;;;5062386;28;20397;-76
2023/07/11 00:39:19;;;;;;;2.83;2.20;;;;;;;;;;5051473;28;20026;-76
2023/07/11 00:41:45;;;;;;;2.45;1.88;;;;;;;;;;5052775;28;20551;-75
2023/07/11 00:44:15;;;;;;;3.45;1.92;;;;;;;;;;5048611;28;20029;-76
2023/07/11 00:46:42;;;;;;;2.20;1.65;;;;;;;;;;5052975;28;20025;-75
2023/07/11 00:49:09;;;;;;;2.60;1.63;;;;;;;;;;5054097;28;20051;-75
2023/07/11 00:51:40;;;;;;;2.75;1.88;;;;;;;;;;5048265;28;20486;-75
2023/07/11 00:54:08;;;;;;;4.35;1.90;;;;;;;;;;5054230;28;20596;-76
2023/07/11 00:56:36;;;;;;;2.50;1.88;;;;;;;;;;5031781;28;20030;-75
2023/07/11 00:59:02;;;;;;;2.90;1.80;;;;;;;;;;5051756;28;20032;-75
2023/07/11 01:01:28;;;;;;;2.78;1.65;;;;;;;;;;5066390;28;20043;-75
2023/07/11 01:03:55;;;;;;;2.50;1.77;;;;;;;;;;5057612;28;20448;-75
2023/07/11 01:06:22;;;;;;;2.28;1.70;;;;;;;;;;5050445;28;20381;-76
2023/07/11 01:08:49;;;;;;;3.15;2.20;;;;;;;;;;5050241;28;20027;-76
2023/07/11 01:11:16;;;;;;;3.35;2.25;;;;;;;;;;5058686;28;20037;-76
2023/07/11 01:13:42;;;;;;;2.33;1.75;;;;;;;;;;5047704;28;20025;-76
2023/07/11 01:16:08;;;;;;;2.97;1.80;;;;;;;;;;5050285;28;20095;-76
2023/07/11 01:18:34;;;;;;;2.33;1.98;;;;;;;;;;5053016;28;20388;-76
2023/07/11 01:21:01;;;;;;;2.65;1.95;;;;;;;;;;5050897;28;20053;-76
2023/07/11 01:23:27;;;;;;;2.78;1.92;;;;;;;;;;5059078;28;20078;-76
2023/07/11 01:26:04;;;;;;;1.77;1.65;;;;;;;;;;5053970;28;20447;-76
2023/07/11 01:28:32;;;;;;;2.05;1.77;;;;;;;;;;5052422;28;20027;-76
2023/07/11 01:30:58;;;;;;;2.90;1.83;;;;;;;;;;5050171;28;20099;-76
2023/07/11 01:33:26;;;;;;;6.70;2.17;;;;;;;;;;5050285;28;20025;-76
2023/07/11 01:35:52;;;;;;;2.35;2.10;;;;;;;;;;5049904;28;20478;-76
2023/07/11 01:38:19;;;;;;;4.07;2.10;;;;;;;;;;5043204;28;20036;-76
2023/07/11 01:40:45;;;;;;;2.50;1.90;;;;;;;;;;5037802;28;20451;-76
2023/07/11 01:43:11;;;;;;;4.88;2.60;;;;;;;;;;5037517;28;20637;-76
2023/07/11 01:45:37;;;;;;;5.22;1.85;;;;;;;;;;5035247;28;20076;-76
2023/07/11 01:48:04;;;;;;;2.05;1.77;;;;;;;;;;5038635;28;20531;-76
2023/07/11 01:50:29;;;;;;;2.50;1.80;;;;;;;;;;5034055;28;20028;-76
2023/07/11 01:52:55;;;;;;;2.13;1.92;;;;;;;;;;5034751;28;20044;-75
2023/07/11 01:55:21;;;;;;;3.10;1.92;;;;;;;;;;5036458;28;20025;-76
2023/07/11 01:57:47;;;;;;;4.30;2.17;;;;;;;;;;5046997;28;20037;-76
2023/07/11 02:00:14;;;;;;;2.97;2.10;;;;;;;;;;5039737;28;20029;-76
2023/07/11 02:02:40;;;;;;;1.98;1.73;;;;;;;;;;5049601;28;20037;-76
2023/07/11 02:05:06;;;;;;;2.80;2.03;;;;;;;;;;5047407;28;20369;-76
2023/07/11 02:07:32;;;;;;;4.10;2.10;;;;;;;;;;5041334;28;20390;-76
2023/07/11 02:09:58;;;;;;;2.50;1.90;;;;;;;;;;5043687;28;20055;-76
2023/07/11 02:12:24;;;;;;;3.45;2.33;;;;;;;;;;5046562;28;20029;-76
2023/07/11 02:14:50;;;;;;;4.65;2.30;;;;;;;;;;5048672;28;20434;-76
2023/07/11 02:17:16;;;;;;;2.53;2.15;;;;;;;;;;5046327;28;20036;-76
2023/07/11 02:19:44;;;;;;;2.80;2.50;;;;;;;;;;5047851;28;21836;-76
2023/07/11 02:22:11;;;;;;;5.70;2.25;;;;;;;;;;5052671;28;20782;-76
2023/07/11 02:24:37;;;;;;;2.67;1.88;;;;;;;;;;5049277;28;20025;-76
2023/07/11 02:27:03;;;;;;;2.78;1.80;;;;;;;;;;5048951;28;20369;-75
2023/07/11 02:29:29;;;;;;;3.53;2.13;;;;;;;;;;5048090;28;20040;-76
2023/07/11 02:31:55;;;;;;;2.88;1.83;;;;;;;;;;5050631;28;20066;-76
2023/07/11 02:34:21;;;;;;;3.53;2.05;;;;;;;;;;5051411;28;20025;-76
2023/07/11 02:36:47;;;;;;;2.90;2.25;;;;;;;;;;5049501;28;20028;-76
2023/07/11 02:39:13;;;;;;;4.32;2.67;;;;;;;;;;5048179;28;20057;-76
2023/07/11 02:41:39;;;;;;;2.40;2.15;;;;;;;;;;5048893;28;20646;-76
2023/07/11 02:44:05;;;;;;;2.90;2.03;;;;;;;;;;5042497;28;20082;-76
2023/07/11 02:46:31;;;;;;;3.10;2.13;;;;;;;;;;5044112;28;20153;-76
2023/07/11 02:48:57;;;;;;;3.00;2.08;;;;;;;;;;5048860;28;20022;-76
2023/07/11 02:51:24;;;;;;;5.97;2.33;;;;;;;;;;5048708;28;20028;-76
2023/07/11 02:53:50;;;;;;;2.92;2.03;;;;;;;;;;5048959;28;20107;-76
2023/07/11 02:56:16;;;;;;;3.25;2.10;;;;;;;;;;5050839;28;20503;-76
2023/07/11 02:58:42;;;;;;;2.60;1.83;;;;;;;;;;5048284;28;20112;-76
2023/07/11 03:01:08;;;;;;;2.08;1.77;;;;;;;;;;5052002;28;20603;-76
2023/07/11 03:03:34;;;;;;;6.63;2.90;;;;;;;;;;5045456;28;20028;-76
2023/07/11 03:06:00;;;;;;;2.72;2.30;;;;;;;;;;5051873;28;20025;-76
2023/07/11 03:08:26;;;;;;;3.05;2.17;;;;;;;;;;5048172;28;20048;-76
2023/07/11 03:10:52;;;;;;;2.75;1.90;;;;;;;;;;5051605;28;20033;-76
2023/07/11 03:13:19;;;;;;;2.15;1.95;;;;;;;;;;5046198;28;20037;-76
2023/07/11 03:15:45;;;;;;;2.95;2.15;;;;;;;;;;5048867;28;20032;-76
2023/07/11 03:18:11;;;;;;;3.35;2.03;;;;;;;;;;5052793;28;20029;-76
2023/07/11 03:20:40;;;;;;;3.35;2.30;;;;;;;;;;5047934;28;20071;-76
2023/07/11 03:23:07;;;;;;;3.20;2.13;;;;;;;;;;5050179;28;20043;-76
2023/07/11 03:25:33;;;;;;;3.47;2.17;;;;;;;;;;5040965;28;20017;-76
2023/07/11 03:27:59;;;;;;;3.83;2.50;;;;;;;;;;5046814;28;20036;-76
2023/07/11 03:30:25;;;;;;;2.83;2.20;;;;;;;;;;5048914;28;20029;-76
2023/07/11 03:32:52;;;;;;;2.90;1.83;;;;;;;;;;5049714;28;20029;-76
2023/07/11 03:35:18;;;;;;;7.53;1.80;;;;;;;;;;5048082;28;20090;-76
2023/07/11 03:37:44;;;;;;;3.22;1.95;;;;;;;;;;5047258;28;20021;-76
2023/07/11 03:40:10;;;;;;;3.75;1.98;;;;;;;;;;5044902;28;20498;-76
2023/07/11 03:42:36;;;;;;;2.38;1.80;;;;;;;;;;5036455;28;20082;-76
2023/07/11 03:45:02;;;;;;;3.47;2.28;;;;;;;;;;5038358;28;20037;-76
2023/07/11 03:47:28;;;;;;;3.33;2.08;;;;;;;;;;5028378;28;20064;-76
2023/07/11 03:49:54;;;;;;;2.80;2.30;;;;;;;;;;5041699;28;20012;-76
2023/07/11 03:52:20;;;;;;;3.50;2.20;;;;;;;;;;5035065;28;20370;-76
2023/07/11 03:54:46;;;;;;;3.33;2.42;;;;;;;;;;5056877;28;20028;-76
2023/07/11 03:57:12;;;;;;;2.00;1.70;;;;;;;;;;5047922;28;20442;-77
2023/07/11 03:59:38;;;;;;;3.08;1.65;;;;;;;;;;5048452;28;20025;-76
2023/07/11 04:02:04;;;;;;;2.55;1.95;;;;;;;;;;5044766;28;20034;-76
2023/07/11 04:04:30;;;;;;;2.90;2.00;;;;;;;;;;5035108;28;20547;-76
2023/07/11 04:06:56;;;;;;;2.20;1.98;;;;;;;;;;5048017;28;20036;-76
2023/07/11 04:09:22;;;;;;;3.17;2.13;;;;;;;;;;5038032;28;20033;-76
2023/07/11 04:11:48;;;;;;;2.58;2.00;;;;;;;;;;5041229;28;20033;-76
2023/07/11 04:14:14;;;;;;;4.63;2.15;;;;;;;;;;5047810;28;20075;-76
2023/07/11 04:16:40;;;;;;;2.50;2.05;;;;;;;;;;5035180;28;20036;-76
2023/07/11 04:19:06;;;;;;;2.33;2.08;;;;;;;;;;5035367;28;20057;-76
2023/07/11 04:21:32;;;;;;;2.60;1.98;;;;;;;;;;5054518;28;20049;-77
2023/07/11 04:23:58;;;;;;;2.80;1.70;;;;;;;;;;5057218;28;20036;-76
2023/07/11 04:26:24;;;;;;;3.63;2.08;;;;;;;;;;5044395;28;20036;-75
2023/07/11 04:28:50;;;;;;;3.28;1.90;;;;;;;;;;5051133;28;20430;-76
2023/07/11 04:31:16;;;;;;;2.67;1.88;;;;;;;;;;5053196;28;20028;-75
2023/07/11 04:33:42;;;;;;;2.78;1.88;;;;;;;;;;5041046;28;20029;-76
2023/07/11 04:36:17;;;;;;;2.05;1.77;;;;;;;;;;5031442;28;20013;-76
2023/07/11 04:38:44;;;;;;;3.45;2.00;;;;;;;;;;5040560;28;20025;-76
2023/07/11 04:41:10;;;;;;;2.42;1.95;;;;;;;;;;5041096;28;20250;-76
2023/07/11 04:43:36;;;;;;;2.33;1.70;;;;;;;;;;5032835;28;20030;-75
2023/07/11 04:46:03;;;;;;;4.65;1.90;;;;;;;;;;5043910;28;20083;-75
2023/07/11 04:48:30;;;;;;;2.10;1.90;;;;;;;;;;5050784;28;20087;-76
2023/07/11 04:50:59;;;;;;;2.75;1.83;;;;;;;;;;5064362;28;20025;-74
2023/07/11 04:53:26;;;;;;;2.65;1.88;;;;;;;;;;5070124;28;20035;-76
2023/07/11 04:56:03;;;;;;;2.90;1.77;;;;;;;;;;5031260;28;20021;-75
2023/07/11 04:58:29;;;;;;;3.03;2.05;;;;;;;;;;5031580;28;20025;-76
2023/07/11 05:01:05;;;;;;;2.97;1.80;;;;;;;;;;5039251;28;20029;-75
2023/07/11 05:03:32;;;;;;;3.35;2.05;;;;;;;;;;5046503;28;20025;-75
2023/07/11 05:05:58;;;;;;;3.50;2.30;;;;;;;;;;5035749;28;20047;-75
2023/07/11 05:08:24;;;;;;;2.78;2.17;;;;;;;;;;5049407;28;20108;-78
2023/07/11 05:10:52;;;;;;;3.10;2.17;;;;;;;;;;5056642;28;20035;-76
2023/07/11 05:13:18;;;;;;;3.38;2.55;;;;;;;;;;5047148;28;20029;-76
2023/07/11 05:15:44;;;;;;;3.42;2.25;;;;;;;;;;5031244;28;20036;-76
2023/07/11 05:18:10;;;;;;;6.53;2.13;;;;;;;;;;5035373;28;20033;-76
2023/07/11 05:20:36;;;;;;;2.20;1.75;;;;;;;;;;5051638;28;20044;-75
2023/07/11 05:23:02;;;;;;;3.67;1.95;;;;;;;;;;5051489;28;20044;-75
2023/07/11 05:25:28;;;;;;;2.45;1.95;;;;;;;;;;5041288;28;20041;-75
2023/07/11 05:27:54;;;;;;;2.00;1.58;;;;;;;;;;5044553;28;20477;-75
2023/07/11 05:30:20;;;;;;;3.38;1.70;;;;;;;;;;5055420;28;20033;-75
2023/07/11 05:32:46;;;;;;;4.18;1.73;;;;;;;;;;5050770;28;20391;-74
2023/07/11 05:35:12;;;;;;;2.80;1.63;;;;;;;;;;5051513;28;20077;-75
2023/07/11 05:37:38;;;;;;;1.73;1.48;;;;;;;;;;5036128;28;20033;-75
2023/07/11 05:40:04;;;;;;;2.97;1.80;;;;;;;;;;5043541;28;20025;-76
2023/07/11 05:42:30;;;;;;;3.47;1.70;;;;;;;;;;5059239;28;20031;-77
2023/07/11 05:44:56;;;;;;;1.48;1.38;;;;;;;;;;5046048;28;20056;-75
2023/07/11 05:47:22;;;;;;;1.88;1.30;;;;;;;;;;5044634;28;20025;-75
2023/07/11 05:49:48;;;;;;;1.60;1.40;;;;;;;;;;5045266;28;20091;-75
2023/07/11 05:52:14;;;;;;;4.15;1.45;;;;;;;;;;5047114;28;20673;-75
2023/07/11 05:54:40;;;;;;;2.40;1.33;;;;;;;;;;5046628;28;20028;-75
2023/07/11 05:57:06;;;;;;;1.38;1.27;;;;;;;;;;5047824;28;20053;-75
2023/07/11 05:59:32;;;;;;;2.70;1.33;;;;;;;;;;5046452;28;20374;-75
2023/07/11 06:01:58;;;;;;;2.30;1.40;;;;;;;;;;5042239;28;20055;-75
2023/07/11 06:04:24;;;;;;;2.55;1.52;;;;;;;;;;5036029;28;20025;-81
2023/07/11 06:06:50;;;;;;;2.25;1.50;;;;;;;;;;5028052;28;20037;-77
2023/07/11 06:09:17;;;;;;;2.78;1.50;;;;;;;;;;5040087;28;20372;-78
2023/07/11 06:11:44;;;;;;;2.08;1.40;;;;;;;;;;5047770;28;20087;-77
2023/07/11 06:14:10;;;;;;;2.17;1.60;;;;;;;;;;5040124;28;20025;-78
2023/07/11 06:16:37;;;;;;;2.92;1.48;;;;;;;;;;5028134;28;20219;-78
2023/07/11 06:19:04;;;;;;;1.92;1.50;;;;;;;;;;5031955;28;20030;-78
2023/07/11 06:21:30;;;;;;;1.77;1.50;;;;;;;;;;5049261;28;20041;-78
2023/07/11 06:23:56;;;;;;;2.70;1.08;;;;;;;;;;5049924;28;20033;-78
2023/07/11 06:26:22;;;;;;;2.35;1.30;;;;;;;;;;5049190;28;20035;-78
2023/07/11 06:28:48;;;;;;;2.05;1.30;;;;;;;;;;5048743;28;20111;-75
2023/07/11 06:31:15;;;;;;;2.22;1.17;;;;;;;;;;5049635;28;20556;-78
2023/07/11 06:33:41;;;;;;;2.40;1.42;;;;;;;;;;5049598;28;20032;-75
2023/07/11 06:36:08;;;;;;;1.77;1.35;;;;;;;;;;5049781;28;20024;-75
2023/07/11 06:38:35;;;;;;;2.17;1.25;;;;;;;;;;5048450;28;20028;-74
2023/07/11 06:41:01;;;;;;;4.50;2.00;;;;;;;;;;5049484;28;20032;-74
2023/07/11 06:43:28;;;;;;;1.20;1.10;;;;;;;;;;5049427;28;20036;-76
2023/07/11 06:45:55;;;;;;;9.68;1.25;;;;;;;;;;5055481;28;20029;-76
2023/07/11 06:48:21;;;;;;;2.35;1.30;;;;;;;;;;5041879;28;20041;-76
2023/07/11 06:50:50;;;;;;;3.92;1.27;;;;;;;;;;5042446;28;20083;-75
2023/07/11 06:53:16;;;;;;;1.67;1.42;;;;;;;;;;5029762;28;20029;-76
2023/07/11 06:55:50;;;;;;;1.30;1.17;;;;;;;;;;5032019;28;20032;-77
2023/07/11 06:58:16;;;;;;;1.77;1.25;;;;;;;;;;5041133;28;20041;-77
2023/07/11 07:00:42;;;;;;;1.50;1.20;;;;;;;;;;5044183;28;20043;-76
2023/07/11 07:03:11;;;;;;;1.58;1.33;;;;;;;;;;5036171;28;20036;-77
2023/07/11 07:05:37;;;;;;;1.80;1.08;;;;;;;;;;5028872;28;20029;-76
2023/07/11 07:08:03;;;;;;;1.65;1.20;;;;;;;;;;5033313;28;20028;-77
2023/07/11 07:10:29;;;;;;;2.10;1.20;;;;;;;;;;5048436;28;20029;-76
2023/07/11 07:12:55;;;;;;;2.05;1.60;;;;;;;;;;5035352;28;20029;-76
2023/07/11 07:15:21;;;;;;;1.50;0.95;;;;;;;;;;5028990;28;20044;-77
2023/07/11 07:17:47;;;;;;;1.10;1.02;;;;;;;;;;5029027;28;20083;-76
2023/07/11 07:20:13;;;;;;;1.27;1.15;;;;;;;;;;5047913;28;20045;-77
2023/07/11 07:22:39;;;;;;;2.75;0.82;;;;;;;;;;5048851;28;20047;-76
2023/07/11 07:25:05;;;;;;;2.00;1.50;;;;;;;;;;5048997;28;20025;-77
2023/07/11 07:27:31;;;;;;;3.17;1.10;;;;;;;;;;5048407;28;20082;-77
2023/07/11 07:29:57;;;;;;;1.17;1.08;;;;;;;;;;5047315;28;20028;-77
2023/07/11 07:32:23;;;;;;;1.52;1.30;;;;;;;;;;5048914;28;20032;-78
2023/07/11 07:34:49;;;;;;;2.85;1.00;;;;;;;;;;5048519;28;20029;-76
2023/07/11 07:37:15;;;;;;;2.55;1.33;;;;;;;;;;5048451;28;20078;-76
2023/07/11 07:39:42;;;;;;;0.90;0.90;;;;;;;;;;5064338;28;20555;-77
2023/07/11 07:42:08;;;;;;;0.90;0.90;;;;;;;;;;5048670;28;20029;-76
2023/07/11 07:44:34;;;;;;;1.80;1.10;;;;;;;;;;5048358;28;20029;-77
2023/07/11 07:47:00;;;;;;;1.48;1.10;;;;;;;;;;5035437;28;20082;-77
2023/07/11 07:49:26;;;;;;;1.27;1.05;;;;;;;;;;5031736;28;20037;-77
2023/07/11 07:51:53;;;;;;;1.60;1.25;;;;;;;;;;5049747;28;20017;-79
2023/07/11 07:54:19;;;;;;;2.50;1.23;;;;;;;;;;5048105;28;20029;-77
2023/07/11 07:56:45;;;;;;;1.33;1.02;;;;;;;;;;5044871;28;20033;-77
2023/07/11 07:59:11;;;;;;;2.90;1.25;;;;;;;;;;5032584;28;20025;-77
2023/07/11 08:01:37;;;;;;;1.00;0.90;;;;;;;;;;5051870;28;20036;-75
2023/07/11 08:04:03;;;;;;;1.80;1.10;;;;;;;;;;5035648;28;20052;-75
2023/07/11 08:06:29;;;;;;;3.25;1.25;;;;;;;;;;5052653;28;20036;-75
2023/07/11 08:08:55;;;;;;;1.80;1.35;;;;;;;;;;5044902;28;20358;-76
2023/07/11 08:11:21;;;;;;;1.17;1.08;;;;;;;;;;5032505;28;20033;-76
2023/07/11 08:13:47;;;;;;;2.15;1.40;;;;;;;;;;5032804;28;20026;-76
2023/07/11 08:16:14;;;;;;;1.42;1.02;;;;;;;;;;5049327;28;20029;-76
2023/07/11 08:18:40;;;;;;;1.63;1.10;;;;;;;;;;5061103;28;21851;-76
2023/07/11 08:21:06;;;;;;;1.75;1.10;;;;;;;;;;5051728;28;20037;-76
2023/07/11 08:23:32;;;;;;;1.60;1.27;;;;;;;;;;5047059;28;20025;-76
2023/07/11 08:25:58;;;;;;;1.02;1.00;;;;;;;;;;5039618;28;20037;-76
2023/07/11 08:28:24;;;;;;;1.95;1.00;;;;;;;;;;5052239;28;20029;-76
2023/07/11 08:30:50;;;;;;;1.35;1.20;;;;;;;;;;5063029;28;20028;-74
2023/07/11 08:33:16;;;;;;;1.23;1.10;;;;;;;;;;5032041;28;20029;-76
2023/07/11 08:35:42;;;;;;;5.50;1.55;;;;;;;;;;5047563;28;20396;-76
2023/07/11 08:38:11;;;;;;;1.45;1.10;;;;;;;;;;5051863;28;20021;-76
2023/07/11 08:40:42;;;;;;;1.90;1.10;;;;;;;;;;5051187;28;20093;-76
2023/07/11 08:43:09;;;;;;;;;;;;;;;;;;5052151;28;20126;-76
2023/07/11 08:45:39;;;;;;;1.30;0.93;;;;;;;;;;5036150;28;19924;-77
2023/07/11 08:48:25;;;;;;;1.05;1.00;;;;;;;;;;5049472;28;20085;-76
2023/07/11 08:51:06;;;;;;;1.25;1.02;;;;;;;;;;5034925;28;20087;-76
2023/07/11 08:53:34;;;;;;;1.83;1.20;;;;;;;;;;5049735;28;20029;-76
2023/07/11 08:56:24;;;;;;;1.17;0.90;;;;;;;;;;5031773;28;20017;-76
2023/07/11 08:58:51;;;;;;;0.98;0.98;;;;;;;;;;5048301;28;20116;-76
2023/07/11 09:01:36;;;;;;;1.67;1.20;;;;;;;;;;5050932;28;20033;-76
2023/07/11 09:04:03;;;;;;;1.88;1.00;;;;;;;;;;5051270;28;20041;-76
2023/07/11 09:06:38;;;;;;;1.27;1.02;;;;;;;;;;5062749;28;20382;-77
2023/07/11 09:09:04;;;;;;;1.10;1.00;;;;;;;;;;5051255;28;20069;-75
2023/07/11 09:11:30;;;;;;;1.45;0.90;;;;;;;;;;5041416;28;20539;-75
2023/07/11 09:14:13;;;;;;;3.13;1.00;;;;;;;;;;5061412;28;20074;-76
2023/07/11 09:16:39;;;;;;;1.52;1.20;;;;;;;;;;5034519;28;20034;-76
2023/07/11 09:19:19;;;;;;;0.85;0.85;;;;;;;;;;5065692;28;20078;-76
2023/07/11 09:22:00;;;;;;;1.90;0.88;;;;;;;;;;5048485;28;20049;-76
2023/07/11 09:24:34;;;;;;;1.98;1.05;;;;;;;;;;5042876;28;20078;-77
2023/07/11 09:27:13;;;;;;;2.08;1.02;;;;;;;;;;5039442;28;20069;-76
2023/07/11 09:29:41;;;;;;;1.10;0.98;;;;;;;;;;5036005;28;20021;-77
2023/07/11 09:32:09;;;;;;;1.10;1.00;;;;;;;;;;5050333;28;20020;-75
2023/07/11 09:34:36;;;;;;;1.52;1.10;;;;;;;;;;5047561;28;20031;-77
2023/07/11 09:37:12;;;;;;;2.20;1.00;;;;;;;;;;5044411;28;20033;-76
2023/07/11 09:39:50;;;;;;;2.08;1.05;;;;;;;;;;5046229;28;20433;-77
2023/07/11 09:42:35;;;;;;;2.25;0.85;;;;;;;;;;5043093;28;20032;-77
2023/07/11 09:45:05;;;;;;;1.67;0.98;;;;;;;;;;5047490;28;20394;-80
2023/07/11 09:47:32;;;;;;;1.00;1.00;;;;;;;;;;5047887;28;20021;-79
2023/07/11 09:50:00;;;;;;;0.88;0.73;;;;;;;;;;5046303;28;20293;-79
2023/07/11 09:52:28;;;;;;;1.70;1.08;;;;;;;;;;5046715;28;20025;-80
2023/07/11 09:54:54;;;;;;;2.00;1.35;;;;;;;;;;5046326;28;20069;-76
2023/07/11 09:57:20;;;;;;;1.50;1.10;;;;;;;;;;5045628;28;20442;-77
2023/07/11 09:59:59;;;;;;;1.27;0.80;;;;;;;;;;5044607;28;20025;-79
2023/07/11 10:02:25;;;;;;;1.17;1.00;;;;;;;;;;5047504;28;20041;-77
2023/07/11 10:04:56;;;;;;;1.88;1.23;;;;;;;;;;5048194;28;20021;-80
2023/07/11 10:07:23;;;;;;;3.22;0.90;;;;;;;;;;5047562;28;20033;-78
2023/07/11 10:09:50;;;;;;;1.00;0.90;;;;;;;;;;5042754;28;20029;-75
2023/07/11 10:12:23;;;;;;;1.10;0.90;;;;;;;;;;5046064;28;20028;-74
2023/07/11 10:14:54;;;;;;;1.55;0.88;;;;;;;;;;5046862;28;20025;-77
2023/07/11 10:17:23;;;;;;;1.65;1.42;;;;;;;;;;5064906;28;20027;-76
2023/07/11 10:19:50;;;;;;;2.95;1.13;;;;;;;;;;5045091;28;20071;-76
2023/07/11 10:22:17;;;;;;;2.70;1.20;;;;;;;;;;5041985;28;20097;-76
2023/07/11 10:24:46;;;;;;;1.38;0.98;;;;;;;;;;5036866;28;20055;-76
2023/07/11 10:27:19;;;;;;;1.08;0.90;;;;;;;;;;5052016;28;20492;-76
2023/07/11 10:29:48;;;;;;;2.33;1.10;;;;;;;;;;5038338;28;20395;-76
2023/07/11 10:32:32;;;;;;;2.38;1.42;;;;;;;;;;5031643;28;20057;-76
2023/07/11 10:34:58;;;;;;;1.63;1.00;;;;;;;;;;5042987;28;20120;-76
2023/07/11 10:37:25;;;;;;;2.95;2.08;;;;;;;;;;5036585;28;20017;-76
2023/07/11 10:39:53;;;;;;;0.88;0.80;;;;;;;;;;5036192;28;20028;-76
2023/07/11 10:42:31;;;;;;;1.77;1.23;;;;;;;;;;5045679;28;20056;-76
2023/07/11 10:45:17;;;;;;;1.83;1.40;;;;;;;;;;5040155;28;20090;-76
2023/07/11 10:48:04;;;;;;;1.23;1.02;;;;;;;;;;5043555;28;20033;-76
2023/07/11 10:50:35;;;;;;;2.35;1.08;;;;;;;;;;5043524;28;20025;-76
2023/07/11 10:53:01;;;;;;;;;;;;;;;;;;5035815;28;20549;-76
2023/07/11 10:55:31;;;;;;;1.10;1.00;;;;;;;;;;5037554;28;19980;-76
2023/07/11 10:57:57;;;;;;;2.15;1.27;;;;;;;;;;5038598;28;20091;-76
2023/07/11 11:00:23;;;;;;;1.23;0.82;;;;;;;;;;5029598;28;20484;-82
2023/07/11 11:03:08;;;;;;;1.00;0.90;;;;;;;;;;5029656;28;20549;-82
2023/07/11 11:05:57;;;;;;;1.90;1.10;;;;;;;;;;5028703;28;20437;-84
2023/07/11 11:08:32;;;;;;;1.27;1.05;;;;;;;;;;5039428;28;20049;-84
2023/07/11 11:11:02;;;;;;;0.95;0.95;;;;;;;;;;5038948;28;20037;-83
2023/07/11 11:13:34;;;;;;;4.50;1.13;;;;;;;;;;5028837;28;20083;-84
2023/07/11 11:16:04;;;;;;;1.73;1.10;;;;;;;;;;5029018;28;20060;-83
2023/07/11 11:18:50;;;;;;;1.35;1.20;;;;;;;;;;5047077;28;20023;-84
2023/07/11 11:21:20;;;;;;;1.75;1.30;;;;;;;;;;5042443;28;20033;-84
2023/07/11 11:24:01;;;;;;;2.05;1.60;;;;;;;;;;5028778;28;20029;-84
2023/07/11 11:26:42;;;;;;;1.55;1.10;;;;;;;;;;5033572;28;20032;-84
2023/07/11 11:29:17;;;;;;;1.73;1.10;;;;;;;;;;5048979;28;20025;-84
2023/07/11 11:31:53;;;;;;;1.70;1.00;;;;;;;;;;5038811;28;20459;-84
2023/07/11 11:34:28;;;;;;;1.40;1.23;;;;;;;;;;5045144;28;20055;-84
2023/07/11 11:36:59;;;;;;;1.00;0.90;;;;;;;;;;5043893;28;20025;-84
2023/07/11 11:39:44;;;;;;;1.58;1.15;;;;;;;;;;5034738;28;20029;-84
2023/07/11 11:42:16;;;;;;;1.92;1.40;;;;;;;;;;5047685;28;20055;-84
2023/07/11 11:44:51;;;;;;;3.13;1.55;;;;;;;;;;5048796;28;20484;-84
2023/07/11 11:47:17;;;;;;;1.38;0.95;;;;;;;;;;5048453;28;20037;-84
2023/07/11 11:49:44;;;;;;;1.45;1.35;;;;;;;;;;5047636;28;20041;-84
2023/07/11 11:52:09;;;;;;;2.08;1.08;;;;;;;;;;5037041;28;20056;-84
2023/07/11 11:54:43;;;;;;;1.60;1.48;;;;;;;;;;5063836;28;20123;-83
2023/07/11 11:57:14;;;;;;;2.28;1.13;;;;;;;;;;5048313;28;20033;-84
2023/07/11 11:59:40;;;;;;;1.85;1.17;;;;;;;;;;5048413;28;20033;-84
2023/07/11 12:02:12;;;;;;;1.67;1.08;;;;;;;;;;5044918;28;20040;-85
2023/07/11 12:04:43;;;;;;;0.85;0.85;;;;;;;;;;5037471;28;20033;-85
2023/07/11 12:07:09;;;;;;;1.33;1.20;;;;;;;;;;5028622;28;20509;-84
2023/07/11 12:09:53;;;;;;;1.40;1.02;;;;;;;;;;5028139;28;20472;-84
2023/07/11 12:12:46;;;;;;;0.98;0.95;;;;;;;;;;5030811;28;20307;-84
2023/07/11 12:15:11;;;;;;;1.38;1.27;;;;;;;;;;5046013;28;20040;-84
2023/07/11 12:17:40;;;;;;;2.65;1.00;;;;;;;;;;5047254;28;20037;-84
2023/07/11 12:20:06;;;;;;;1.45;1.30;;;;;;;;;;5040791;28;20037;-84
2023/07/11 12:22:38;;;;;;;1.20;1.10;;;;;;;;;;5047773;28;20040;-84
2023/07/11 12:25:07;;;;;;;1.05;0.90;;;;;;;;;;5048133;28;20082;-84
2023/07/11 12:27:33;;;;;;;1.05;0.95;;;;;;;;;;5045329;28;21119;-84
2023/07/11 12:30:00;;;;;;;1.75;1.20;;;;;;;;;;5043121;28;20549;-84
2023/07/11 12:32:31;;;;;;;1.52;1.10;;;;;;;;;;5034408;28;20037;-85
2023/07/11 12:34:58;;;;;;;1.45;1.13;;;;;;;;;;5028828;28;20021;-84
2023/07/11 12:37:26;;;;;;;1.17;1.00;;;;;;;;;;5031591;28;20648;-85
2023/07/11 12:40:06;;;;;;;1.45;1.08;;;;;;;;;;5047059;28;20538;-84
2023/07/11 12:42:38;;;;;;;2.05;0.70;;;;;;;;;;5058855;28;20503;-84
2023/07/11 12:45:18;;;;;;;1.65;1.10;;;;;;;;;;5051601;28;20044;-84
2023/07/11 12:47:46;;;;;;;1.63;1.30;;;;;;;;;;5051433;28;20024;-84
2023/07/11 12:50:23;;;;;;;2.05;1.00;;;;;;;;;;5051404;28;20051;-85
2023/07/11 12:52:59;;;;;;;1.13;0.88;;;;;;;;;;5045569;28;20319;-84
2023/07/11 12:55:25;;;;;;;1.23;1.00;;;;;;;;;;5035257;28;20091;-84
2023/07/11 12:57:51;;;;;;;1.60;1.20;;;;;;;;;;5031670;28;20037;-84
2023/07/11 13:00:18;;;;;;;1.10;1.00;;;;;;;;;;5031241;28;20037;-84
2023/07/11 13:02:45;;;;;;;1.13;1.00;;;;;;;;;;5043375;28;20051;-84
2023/07/11 13:05:12;;;;;;;1.05;0.80;;;;;;;;;;5033554;28;20049;-84
2023/07/11 13:07:38;;;;;;;2.70;1.05;;;;;;;;;;5031269;28;20116;-84
2023/07/11 13:10:23;;;;;;;1.20;1.00;;;;;;;;;;5031105;28;20041;-84
2023/07/11 13:12:51;;;;;;;1.92;1.17;;;;;;;;;;5035754;28;20578;-84
2023/07/11 13:15:21;;;;;;;0.77;0.75;;;;;;;;;;5066251;28;20029;-83
2023/07/11 13:17:49;;;;;;;1.52;1.20;;;;;;;;;;5051292;28;20033;-84
2023/07/11 13:20:22;;;;;;;1.10;1.00;;;;;;;;;;5050558;28;20041;-84
2023/07/11 13:22:48;;;;;;;2.33;1.20;;;;;;;;;;5050015;28;20116;-84
2023/07/11 13:25:15;;;;;;;2.58;1.15;;;;;;;;;;5048433;28;20071;-84
2023/07/11 13:27:45;;;;;;;1.17;0.98;;;;;;;;;;5048588;28;20439;-84
2023/07/11 13:30:37;;;;;;;1.42;1.00;;;;;;;;;;5050860;28;20174;-85
2023/07/11 13:33:04;;;;;;;1.20;1.10;;;;;;;;;;5040321;28;20042;-84
2023/07/11 13:35:32;;;;;;;2.20;1.10;;;;;;;;;;5030702;28;20484;-83
2023/07/11 13:37:59;;;;;;;1.05;1.00;;;;;;;;;;5037655;28;20511;-84
2023/07/11 13:40:31;;;;;;;0.90;0.90;;;;;;;;;;5030438;28;20057;-84
2023/07/11 13:42:58;;;;;;;1.65;0.90;;;;;;;;;;5030655;28;20039;-84
2023/07/11 13:45:25;;;;;;;1.42;0.90;;;;;;;;;;5030532;28;20094;-84
2023/07/11 13:47:52;;;;;;;0.80;0.80;;;;;;;;;;5052078;28;20063;-84
2023/07/11 13:50:26;;;;;;;0.82;0.82;;;;;;;;;;5050166;28;20032;-83
2023/07/11 13:52:53;;;;;;;1.55;1.20;;;;;;;;;;5050276;28;20048;-83
2023/07/11 13:55:21;;;;;;;2.47;0.88;;;;;;;;;;5049900;28;20462;-84
2023/07/11 13:57:47;;;;;;;1.08;0.98;;;;;;;;;;5049161;28;20025;-83
2023/07/11 14:00:14;;;;;;;1.15;0.90;;;;;;;;;;5050246;28;20028;-83
2023/07/11 14:02:41;;;;;;;1.00;1.00;;;;;;;;;;5049990;28;20028;-84
2023/07/11 14:05:15;;;;;;;1.58;0.90;;;;;;;;;;5049952;28;20021;-84
2023/07/11 14:07:41;;;;;;;0.90;0.90;;;;;;;;;;5049677;28;20078;-83
2023/07/11 14:10:07;;;;;;;1.20;0.90;;;;;;;;;;5048016;28;20033;-83
2023/07/11 14:12:33;;;;;;;1.33;0.90;;;;;;;;;;5038445;28;20013;-84
2023/07/11 14:14:59;;;;;;;1.13;0.80;;;;;;;;;;5029869;28;20033;-83
2023/07/11 14:17:25;;;;;;;0.90;0.90;;;;;;;;;;5029738;28;20034;-83
2023/07/11 14:19:51;;;;;;;1.23;0.85;;;;;;;;;;5044503;28;20098;-84
2023/07/11 14:22:22;;;;;;;0.95;0.95;;;;;;;;;;5049543;28;20473;-83
2023/07/11 14:24:48;;;;;;;0.98;0.90;;;;;;;;;;5049520;28;20032;-83
2023/07/11 14:27:15;;;;;;;1.20;1.00;;;;;;;;;;5049386;28;20040;-83
2023/07/11 14:29:42;;;;;;;1.08;0.98;;;;;;;;;;5047543;28;20033;-83
2023/07/11 14:32:12;;;;;;;1.52;1.00;;;;;;;;;;5049536;28;20021;-83
2023/07/11 14:34:38;;;;;;;1.00;0.77;;;;;;;;;;5049117;28;20020;-83
2023/07/11 14:37:04;;;;;;;1.52;1.10;;;;;;;;;;5049462;28;20057;-84
2023/07/11 14:39:30;;;;;;;0.90;0.90;;;;;;;;;;5037208;28;20025;-84
2023/07/11 14:41:56;;;;;;;2.08;1.15;;;;;;;;;;5042847;28;20028;-83
2023/07/11 14:44:32;;;;;;;1.45;1.08;;;;;;;;;;5029842;28;20025;-83
2023/07/11 14:46:58;;;;;;;2.40;1.40;;;;;;;;;;5029727;28;20029;-83
2023/07/11 14:49:25;;;;;;;1.90;1.70;;;;;;;;;;5030852;28;20043;-83